sensor_id;sensor_type;location;lat;lon;timestamp;P1;durP1;ratioP1;P2;durP2;ratioP2
5831;SDS011;50943;51.448;7.646;2022-12-20T00:00:31;5.87;;;2.70;;
5831;SDS011;50943;51.448;7.646;2022-12-20T00:02:57;5.03;;;2.37;;
5831;SDS011;50943;51.448;7.646;2022-12-20T00:05:24;4.97;;;2.30;;
5831;SDS011;50943;51.448;7.646;2022-12-20T00:07:51;6.23;;;2.80;;
5831;SDS011;50943;51.448;7.646;2022-12-20T00:10:18;4.80;;;2.63;;
5831;SDS011;50943;51.448;7.646;2022-12-20T00:12:44;8.17;;;2.30;;
5831;SDS011;50943;51.448;7.646;2022-12-20T00:15:11;4.73;;;2.17;;
5831;SDS011;50943;51.448;7.646;2022-12-20T00:17:37;6.30;;;3.00;;
5831;SDS011;50943;51.448;7.646;2022-12-20T00:20:04;6.00;;;2.07;;
5831;SDS011;50943;51.448;7.646;2022-12-20T00:22:31;5.77;;;2.10;;
5831;SDS011;50943;51.448;7.646;2022-12-20T00:24:58;4.07;;;2.30;;
5831;SDS011;50943;51.448;7.646;2022-12-20T00:27:25;3.40;;;1.80;;
5831;SDS011;50943;51.448;7.646;2022-12-20T00:29:51;6.67;;;2.80;;
5831;SDS011;50943;51.448;7.646;2022-12-20T00:32:18;3.60;;;2.03;;
5831;SDS011;50943;51.448;7.646;2022-12-20T00:34:44;4.80;;;2.37;;
5831;SDS011;50943;51.448;7.646;2022-12-20T00:37:12;4.77;;;2.37;;
5831;SDS011;50943;51.448;7.646;2022-12-20T00:39:38;4.10;;;1.80;;
5831;SDS011;50943;51.448;7.646;2022-12-20T00:42:06;3.10;;;2.10;;
5831;SDS011;50943;51.448;7.646;2022-12-20T00:44:32;4.53;;;2.10;;
5831;SDS011;50943;51.448;7.646;2022-12-20T00:46:59;3.17;;;1.83;;
5831;SDS011;50943;51.448;7.646;2022-12-20T00:49:25;5.20;;;2.13;;
5831;SDS011;50943;51.448;7.646;2022-12-20T00:51:52;4.60;;;2.00;;
5831;SDS011;50943;51.448;7.646;2022-12-20T00:54:18;3.10;;;1.90;;
5831;SDS011;50943;51.448;7.646;2022-12-20T00:56:44;3.40;;;1.87;;
5831;SDS011;50943;51.448;7.646;2022-12-20T00:59:12;4.10;;;2.10;;
5831;SDS011;50943;51.448;7.646;2022-12-20T01:01:39;3.70;;;1.90;;
5831;SDS011;50943;51.448;7.646;2022-12-20T01:04:05;3.50;;;1.90;;
5831;SDS011;50943;51.448;7.646;2022-12-20T01:06:32;3.60;;;2.17;;
5831;SDS011;50943;51.448;7.646;2022-12-20T01:08:58;4.17;;;2.00;;
5831;SDS011;50943;51.448;7.646;2022-12-20T01:11:26;4.00;;;2.30;;
5831;SDS011;50943;51.448;7.646;2022-12-20T01:13:53;3.60;;;1.70;;
5831;SDS011;50943;51.448;7.646;2022-12-20T01:16:23;2.90;;;2.00;;
5831;SDS011;50943;51.448;7.646;2022-12-20T01:18:50;5.53;;;2.03;;
5831;SDS011;50943;51.448;7.646;2022-12-20T01:21:18;5.00;;;2.30;;
5831;SDS011;50943;51.448;7.646;2022-12-20T01:23:45;4.90;;;1.90;;
5831;SDS011;50943;51.448;7.646;2022-12-20T01:26:13;4.60;;;2.10;;
5831;SDS011;50943;51.448;7.646;2022-12-20T01:28:41;3.20;;;1.77;;
5831;SDS011;50943;51.448;7.646;2022-12-20T01:31:09;2.30;;;1.80;;
5831;SDS011;50943;51.448;7.646;2022-12-20T01:33:36;3.80;;;1.80;;
5831;SDS011;50943;51.448;7.646;2022-12-20T01:36:04;3.67;;;1.90;;
5831;SDS011;50943;51.448;7.646;2022-12-20T01:38:31;3.73;;;2.00;;
5831;SDS011;50943;51.448;7.646;2022-12-20T01:40:57;4.33;;;2.03;;
5831;SDS011;50943;51.448;7.646;2022-12-20T01:43:24;2.23;;;1.60;;
5831;SDS011;50943;51.448;7.646;2022-12-20T01:45:51;3.77;;;2.40;;
5831;SDS011;50943;51.448;7.646;2022-12-20T01:48:19;4.23;;;1.97;;
5831;SDS011;50943;51.448;7.646;2022-12-20T01:50:48;4.57;;;2.00;;
5831;SDS011;50943;51.448;7.646;2022-12-20T01:53:15;3.87;;;1.83;;
5831;SDS011;50943;51.448;7.646;2022-12-20T01:55:42;2.63;;;1.73;;
5831;SDS011;50943;51.448;7.646;2022-12-20T01:58:12;3.60;;;1.93;;
5831;SDS011;50943;51.448;7.646;2022-12-20T02:00:39;2.80;;;1.73;;
5831;SDS011;50943;51.448;7.646;2022-12-20T02:03:07;4.67;;;2.27;;
5831;SDS011;50943;51.448;7.646;2022-12-20T02:05:35;5.50;;;2.40;;
5831;SDS011;50943;51.448;7.646;2022-12-20T02:08:04;4.30;;;2.20;;
5831;SDS011;50943;51.448;7.646;2022-12-20T02:10:33;4.17;;;1.90;;
5831;SDS011;50943;51.448;7.646;2022-12-20T02:13:06;3.30;;;1.87;;
5831;SDS011;50943;51.448;7.646;2022-12-20T02:15:39;6.10;;;2.10;;
5831;SDS011;50943;51.448;7.646;2022-12-20T02:18:12;8.17;;;3.60;;
5831;SDS011;50943;51.448;7.646;2022-12-20T02:23:37;3.90;;;2.00;;
5831;SDS011;50943;51.448;7.646;2022-12-20T02:26:12;6.30;;;2.20;;
5831;SDS011;50943;51.448;7.646;2022-12-20T02:28:46;5.20;;;2.37;;
5831;SDS011;50943;51.448;7.646;2022-12-20T02:31:22;6.30;;;2.17;;
5831;SDS011;50943;51.448;7.646;2022-12-20T02:33:50;3.63;;;1.87;;
5831;SDS011;50943;51.448;7.646;2022-12-20T02:36:17;7.03;;;2.17;;
5831;SDS011;50943;51.448;7.646;2022-12-20T02:38:44;4.60;;;2.83;;
5831;SDS011;50943;51.448;7.646;2022-12-20T02:41:11;4.07;;;2.00;;
5831;SDS011;50943;51.448;7.646;2022-12-20T02:43:41;4.00;;;2.23;;
5831;SDS011;50943;51.448;7.646;2022-12-20T02:46:28;4.70;;;2.27;;
5831;SDS011;50943;51.448;7.646;2022-12-20T02:48:57;5.23;;;2.30;;
5831;SDS011;50943;51.448;7.646;2022-12-20T02:51:26;2.93;;;2.07;;
5831;SDS011;50943;51.448;7.646;2022-12-20T02:53:53;4.17;;;2.47;;
5831;SDS011;50943;51.448;7.646;2022-12-20T02:56:21;3.10;;;2.10;;
5831;SDS011;50943;51.448;7.646;2022-12-20T02:58:54;3.60;;;2.30;;
5831;SDS011;50943;51.448;7.646;2022-12-20T03:01:22;5.60;;;2.83;;
5831;SDS011;50943;51.448;7.646;2022-12-20T03:03:51;4.07;;;2.37;;
5831;SDS011;50943;51.448;7.646;2022-12-20T03:06:18;4.90;;;2.90;;
5831;SDS011;50943;51.448;7.646;2022-12-20T03:08:44;3.63;;;1.97;;
5831;SDS011;50943;51.448;7.646;2022-12-20T03:11:11;4.30;;;2.20;;
5831;SDS011;50943;51.448;7.646;2022-12-20T03:13:38;4.40;;;2.37;;
5831;SDS011;50943;51.448;7.646;2022-12-20T03:16:05;4.80;;;2.00;;
5831;SDS011;50943;51.448;7.646;2022-12-20T03:18:32;3.47;;;2.07;;
5831;SDS011;50943;51.448;7.646;2022-12-20T03:21:00;4.07;;;2.53;;
5831;SDS011;50943;51.448;7.646;2022-12-20T03:23:27;4.47;;;2.40;;
5831;SDS011;50943;51.448;7.646;2022-12-20T03:25:53;4.57;;;2.40;;
5831;SDS011;50943;51.448;7.646;2022-12-20T03:28:20;4.90;;;3.00;;
5831;SDS011;50943;51.448;7.646;2022-12-20T03:30:46;6.80;;;2.60;;
5831;SDS011;50943;51.448;7.646;2022-12-20T03:33:13;4.43;;;2.77;;
5831;SDS011;50943;51.448;7.646;2022-12-20T03:35:39;4.53;;;2.13;;
5831;SDS011;50943;51.448;7.646;2022-12-20T03:38:07;5.37;;;2.20;;
5831;SDS011;50943;51.448;7.646;2022-12-20T03:40:33;7.03;;;2.63;;
5831;SDS011;50943;51.448;7.646;2022-12-20T03:43:00;5.27;;;2.20;;
5831;SDS011;50943;51.448;7.646;2022-12-20T03:45:26;3.77;;;2.20;;
5831;SDS011;50943;51.448;7.646;2022-12-20T03:47:52;6.17;;;2.57;;
5831;SDS011;50943;51.448;7.646;2022-12-20T03:50:19;4.23;;;2.30;;
5831;SDS011;50943;51.448;7.646;2022-12-20T03:52:45;4.57;;;2.50;;
5831;SDS011;50943;51.448;7.646;2022-12-20T03:55:13;5.67;;;2.60;;
5831;SDS011;50943;51.448;7.646;2022-12-20T03:57:39;5.57;;;2.50;;
5831;SDS011;50943;51.448;7.646;2022-12-20T04:00:06;6.30;;;3.30;;
5831;SDS011;50943;51.448;7.646;2022-12-20T04:02:33;5.17;;;2.63;;
5831;SDS011;50943;51.448;7.646;2022-12-20T04:04:59;6.53;;;3.10;;
5831;SDS011;50943;51.448;7.646;2022-12-20T04:07:26;5.30;;;2.70;;
5831;SDS011;50943;51.448;7.646;2022-12-20T04:09:52;5.00;;;3.17;;
5831;SDS011;50943;51.448;7.646;2022-12-20T04:12:20;4.03;;;2.70;;
5831;SDS011;50943;51.448;7.646;2022-12-20T04:14:46;9.27;;;2.70;;
5831;SDS011;50943;51.448;7.646;2022-12-20T04:17:13;8.53;;;2.97;;
5831;SDS011;50943;51.448;7.646;2022-12-20T04:19:40;5.60;;;2.90;;
5831;SDS011;50943;51.448;7.646;2022-12-20T04:22:06;5.73;;;3.20;;
5831;SDS011;50943;51.448;7.646;2022-12-20T04:24:32;3.80;;;2.40;;
5831;SDS011;50943;51.448;7.646;2022-12-20T04:26:59;4.77;;;2.70;;
5831;SDS011;50943;51.448;7.646;2022-12-20T04:29:27;4.63;;;2.43;;
5831;SDS011;50943;51.448;7.646;2022-12-20T04:31:53;4.83;;;2.73;;
5831;SDS011;50943;51.448;7.646;2022-12-20T04:34:19;7.43;;;2.87;;
5831;SDS011;50943;51.448;7.646;2022-12-20T04:36:46;6.53;;;2.93;;
5831;SDS011;50943;51.448;7.646;2022-12-20T04:39:13;5.43;;;3.00;;
5831;SDS011;50943;51.448;7.646;2022-12-20T04:41:39;5.37;;;3.43;;
5831;SDS011;50943;51.448;7.646;2022-12-20T04:44:06;5.07;;;3.10;;
5831;SDS011;50943;51.448;7.646;2022-12-20T04:46:34;7.47;;;3.00;;
5831;SDS011;50943;51.448;7.646;2022-12-20T04:49:00;7.03;;;3.40;;
5831;SDS011;50943;51.448;7.646;2022-12-20T04:51:27;8.40;;;3.67;;
5831;SDS011;50943;51.448;7.646;2022-12-20T04:53:53;5.90;;;4.17;;
5831;SDS011;50943;51.448;7.646;2022-12-20T04:56:20;11.90;;;4.37;;
5831;SDS011;50943;51.448;7.646;2022-12-20T04:58:47;7.80;;;3.47;;
5831;SDS011;50943;51.448;7.646;2022-12-20T05:01:14;7.40;;;4.37;;
5831;SDS011;50943;51.448;7.646;2022-12-20T05:03:42;6.70;;;4.40;;
5831;SDS011;50943;51.448;7.646;2022-12-20T05:06:08;12.30;;;5.20;;
5831;SDS011;50943;51.448;7.646;2022-12-20T05:08:36;14.47;;;4.00;;
5831;SDS011;50943;51.448;7.646;2022-12-20T05:11:03;13.00;;;4.10;;
5831;SDS011;50943;51.448;7.646;2022-12-20T05:13:30;13.30;;;4.00;;
5831;SDS011;50943;51.448;7.646;2022-12-20T05:15:56;9.13;;;4.77;;
5831;SDS011;50943;51.448;7.646;2022-12-20T05:18:23;12.63;;;4.50;;
5831;SDS011;50943;51.448;7.646;2022-12-20T05:20:53;8.00;;;4.70;;
5831;SDS011;50943;51.448;7.646;2022-12-20T05:23:39;9.33;;;5.60;;
5831;SDS011;50943;51.448;7.646;2022-12-20T05:26:23;17.03;;;4.17;;
5831;SDS011;50943;51.448;7.646;2022-12-20T05:28:50;9.30;;;4.87;;
5831;SDS011;50943;51.448;7.646;2022-12-20T05:31:16;9.67;;;4.90;;
5831;SDS011;50943;51.448;7.646;2022-12-20T05:33:43;9.80;;;4.27;;
5831;SDS011;50943;51.448;7.646;2022-12-20T05:36:11;11.00;;;4.43;;
5831;SDS011;50943;51.448;7.646;2022-12-20T05:38:37;11.07;;;4.30;;
5831;SDS011;50943;51.448;7.646;2022-12-20T05:41:03;13.80;;;4.77;;
5831;SDS011;50943;51.448;7.646;2022-12-20T05:43:30;7.97;;;4.60;;
5831;SDS011;50943;51.448;7.646;2022-12-20T05:45:57;7.70;;;4.70;;
5831;SDS011;50943;51.448;7.646;2022-12-20T05:48:24;11.03;;;4.33;;
5831;SDS011;50943;51.448;7.646;2022-12-20T05:50:50;8.07;;;3.97;;
5831;SDS011;50943;51.448;7.646;2022-12-20T05:53:18;9.90;;;3.70;;
5831;SDS011;50943;51.448;7.646;2022-12-20T05:55:47;7.90;;;4.00;;
5831;SDS011;50943;51.448;7.646;2022-12-20T05:58:13;6.10;;;3.40;;
5831;SDS011;50943;51.448;7.646;2022-12-20T06:00:40;4.90;;;3.77;;
5831;SDS011;50943;51.448;7.646;2022-12-20T06:03:07;5.77;;;3.90;;
5831;SDS011;50943;51.448;7.646;2022-12-20T06:05:34;5.33;;;3.77;;
5831;SDS011;50943;51.448;7.646;2022-12-20T06:08:00;9.80;;;3.90;;
5831;SDS011;50943;51.448;7.646;2022-12-20T06:10:28;10.20;;;3.67;;
5831;SDS011;50943;51.448;7.646;2022-12-20T06:12:54;8.50;;;4.50;;
5831;SDS011;50943;51.448;7.646;2022-12-20T06:15:21;8.00;;;4.17;;
5831;SDS011;50943;51.448;7.646;2022-12-20T06:17:47;7.43;;;4.17;;
5831;SDS011;50943;51.448;7.646;2022-12-20T06:20:14;7.30;;;4.40;;
5831;SDS011;50943;51.448;7.646;2022-12-20T06:22:40;6.23;;;3.90;;
5831;SDS011;50943;51.448;7.646;2022-12-20T06:25:07;7.60;;;4.07;;
5831;SDS011;50943;51.448;7.646;2022-12-20T06:27:35;8.00;;;4.10;;
5831;SDS011;50943;51.448;7.646;2022-12-20T06:30:02;7.40;;;4.40;;
5831;SDS011;50943;51.448;7.646;2022-12-20T06:32:28;5.97;;;3.33;;
5831;SDS011;50943;51.448;7.646;2022-12-20T06:34:55;10.00;;;4.10;;
5831;SDS011;50943;51.448;7.646;2022-12-20T06:37:21;11.23;;;4.43;;
5831;SDS011;50943;51.448;7.646;2022-12-20T06:39:47;11.07;;;3.93;;
5831;SDS011;50943;51.448;7.646;2022-12-20T06:42:14;6.63;;;3.60;;
5831;SDS011;50943;51.448;7.646;2022-12-20T06:44:42;7.50;;;3.80;;
5831;SDS011;50943;51.448;7.646;2022-12-20T06:47:08;6.80;;;3.40;;
5831;SDS011;50943;51.448;7.646;2022-12-20T06:49:35;8.47;;;3.50;;
5831;SDS011;50943;51.448;7.646;2022-12-20T06:52:01;6.50;;;3.10;;
5831;SDS011;50943;51.448;7.646;2022-12-20T06:54:27;6.43;;;3.43;;
5831;SDS011;50943;51.448;7.646;2022-12-20T06:56:54;9.50;;;3.20;;
5831;SDS011;50943;51.448;7.646;2022-12-20T06:59:20;4.80;;;3.10;;
5831;SDS011;50943;51.448;7.646;2022-12-20T07:01:48;9.13;;;3.70;;
5831;SDS011;50943;51.448;7.646;2022-12-20T07:04:14;6.23;;;3.20;;
5831;SDS011;50943;51.448;7.646;2022-12-20T07:06:41;5.40;;;2.37;;
5831;SDS011;50943;51.448;7.646;2022-12-20T07:09:07;4.60;;;3.17;;
5831;SDS011;50943;51.448;7.646;2022-12-20T07:11:34;5.67;;;3.03;;
5831;SDS011;50943;51.448;7.646;2022-12-20T07:14:00;9.80;;;3.37;;
5831;SDS011;50943;51.448;7.646;2022-12-20T07:16:27;5.87;;;2.90;;
5831;SDS011;50943;51.448;7.646;2022-12-20T07:18:55;13.70;;;3.83;;
5831;SDS011;50943;51.448;7.646;2022-12-20T07:21:21;6.33;;;2.80;;
5831;SDS011;50943;51.448;7.646;2022-12-20T07:23:47;6.30;;;2.90;;
5831;SDS011;50943;51.448;7.646;2022-12-20T07:26:14;5.80;;;3.23;;
5831;SDS011;50943;51.448;7.646;2022-12-20T07:28:41;6.10;;;2.80;;
5831;SDS011;50943;51.448;7.646;2022-12-20T07:31:07;6.63;;;2.83;;
5831;SDS011;50943;51.448;7.646;2022-12-20T07:33:34;5.73;;;2.73;;
5831;SDS011;50943;51.448;7.646;2022-12-20T07:36:03;8.70;;;3.20;;
5831;SDS011;50943;51.448;7.646;2022-12-20T07:38:30;4.37;;;2.53;;
5831;SDS011;50943;51.448;7.646;2022-12-20T07:40:56;5.77;;;3.77;;
5831;SDS011;50943;51.448;7.646;2022-12-20T07:43:23;8.10;;;2.70;;
5831;SDS011;50943;51.448;7.646;2022-12-20T07:45:52;4.43;;;2.67;;
5831;SDS011;50943;51.448;7.646;2022-12-20T07:48:18;6.00;;;2.57;;
5831;SDS011;50943;51.448;7.646;2022-12-20T07:50:45;4.30;;;2.50;;
5831;SDS011;50943;51.448;7.646;2022-12-20T07:53:13;5.80;;;2.50;;
5831;SDS011;50943;51.448;7.646;2022-12-20T07:55:40;7.63;;;3.07;;
5831;SDS011;50943;51.448;7.646;2022-12-20T07:58:07;8.57;;;3.03;;
5831;SDS011;50943;51.448;7.646;2022-12-20T08:00:34;8.20;;;2.70;;
5831;SDS011;50943;51.448;7.646;2022-12-20T08:03:04;6.63;;;3.87;;
5831;SDS011;50943;51.448;7.646;2022-12-20T08:05:32;5.53;;;2.30;;
5831;SDS011;50943;51.448;7.646;2022-12-20T08:07:59;4.73;;;2.70;;
5831;SDS011;50943;51.448;7.646;2022-12-20T08:10:29;9.80;;;2.20;;
5831;SDS011;50943;51.448;7.646;2022-12-20T08:12:56;3.47;;;2.17;;
5831;SDS011;50943;51.448;7.646;2022-12-20T08:15:24;5.80;;;2.50;;
5831;SDS011;50943;51.448;7.646;2022-12-20T08:17:51;8.73;;;2.50;;
5831;SDS011;50943;51.448;7.646;2022-12-20T08:20:17;5.03;;;2.37;;
5831;SDS011;50943;51.448;7.646;2022-12-20T08:22:43;8.70;;;2.50;;
5831;SDS011;50943;51.448;7.646;2022-12-20T08:25:10;5.63;;;3.03;;
5831;SDS011;50943;51.448;7.646;2022-12-20T08:27:38;5.60;;;2.00;;
5831;SDS011;50943;51.448;7.646;2022-12-20T08:30:05;4.90;;;2.13;;
5831;SDS011;50943;51.448;7.646;2022-12-20T08:32:32;4.43;;;2.50;;
5831;SDS011;50943;51.448;7.646;2022-12-20T08:34:58;5.83;;;2.40;;
5831;SDS011;50943;51.448;7.646;2022-12-20T08:37:25;5.10;;;2.30;;
5831;SDS011;50943;51.448;7.646;2022-12-20T08:39:51;5.10;;;2.70;;
5831;SDS011;50943;51.448;7.646;2022-12-20T08:42:20;5.10;;;3.00;;
5831;SDS011;50943;51.448;7.646;2022-12-20T08:44:48;4.60;;;2.43;;
5831;SDS011;50943;51.448;7.646;2022-12-20T08:47:15;4.07;;;2.40;;
5831;SDS011;50943;51.448;7.646;2022-12-20T08:49:42;4.27;;;1.93;;
5831;SDS011;50943;51.448;7.646;2022-12-20T08:52:08;4.10;;;2.33;;
5831;SDS011;50943;51.448;7.646;2022-12-20T08:54:35;3.97;;;2.07;;
5831;SDS011;50943;51.448;7.646;2022-12-20T08:57:01;5.23;;;2.20;;
5831;SDS011;50943;51.448;7.646;2022-12-20T08:59:27;4.03;;;2.07;;
5831;SDS011;50943;51.448;7.646;2022-12-20T09:01:55;5.17;;;2.30;;
5831;SDS011;50943;51.448;7.646;2022-12-20T09:04:22;6.60;;;2.33;;
5831;SDS011;50943;51.448;7.646;2022-12-20T09:06:48;3.70;;;2.17;;
5831;SDS011;50943;51.448;7.646;2022-12-20T09:09:15;3.87;;;2.00;;
5831;SDS011;50943;51.448;7.646;2022-12-20T09:11:41;6.77;;;2.10;;
5831;SDS011;50943;51.448;7.646;2022-12-20T09:14:08;6.30;;;2.80;;
5831;SDS011;50943;51.448;7.646;2022-12-20T09:16:34;6.27;;;2.30;;
5831;SDS011;50943;51.448;7.646;2022-12-20T09:19:03;4.53;;;2.23;;
5831;SDS011;50943;51.448;7.646;2022-12-20T09:21:30;11.13;;;4.53;;
5831;SDS011;50943;51.448;7.646;2022-12-20T09:23:57;4.97;;;2.60;;
5831;SDS011;50943;51.448;7.646;2022-12-20T09:26:23;7.27;;;2.60;;
5831;SDS011;50943;51.448;7.646;2022-12-20T09:28:50;4.97;;;2.27;;
5831;SDS011;50943;51.448;7.646;2022-12-20T09:31:17;7.33;;;2.20;;
5831;SDS011;50943;51.448;7.646;2022-12-20T09:33:44;4.70;;;2.97;;
5831;SDS011;50943;51.448;7.646;2022-12-20T09:36:12;5.27;;;2.60;;
5831;SDS011;50943;51.448;7.646;2022-12-20T09:38:39;3.10;;;1.93;;
5831;SDS011;50943;51.448;7.646;2022-12-20T09:41:06;5.33;;;2.60;;
5831;SDS011;50943;51.448;7.646;2022-12-20T09:43:33;4.50;;;2.30;;
5831;SDS011;50943;51.448;7.646;2022-12-20T09:46:00;8.40;;;2.00;;
5831;SDS011;50943;51.448;7.646;2022-12-20T09:48:29;5.23;;;2.33;;
5831;SDS011;50943;51.448;7.646;2022-12-20T09:50:57;4.33;;;2.07;;
5831;SDS011;50943;51.448;7.646;2022-12-20T09:53:33;3.73;;;2.00;;
5831;SDS011;50943;51.448;7.646;2022-12-20T09:56:02;6.00;;;2.50;;
5831;SDS011;50943;51.448;7.646;2022-12-20T09:58:41;4.07;;;2.20;;
5831;SDS011;50943;51.448;7.646;2022-12-20T10:01:15;3.87;;;2.17;;
5831;SDS011;50943;51.448;7.646;2022-12-20T10:03:42;4.37;;;2.50;;
5831;SDS011;50943;51.448;7.646;2022-12-20T10:06:10;4.30;;;2.00;;
5831;SDS011;50943;51.448;7.646;2022-12-20T10:08:44;4.17;;;2.00;;
5831;SDS011;50943;51.448;7.646;2022-12-20T10:11:15;4.67;;;2.13;;
5831;SDS011;50943;51.448;7.646;2022-12-20T10:13:47;4.00;;;1.90;;
5831;SDS011;50943;51.448;7.646;2022-12-20T10:16:19;4.63;;;2.20;;
5831;SDS011;50943;51.448;7.646;2022-12-20T10:18:54;4.50;;;2.30;;
5831;SDS011;50943;51.448;7.646;2022-12-20T10:21:25;3.80;;;2.10;;
5831;SDS011;50943;51.448;7.646;2022-12-20T10:23:59;4.17;;;1.80;;
5831;SDS011;50943;51.448;7.646;2022-12-20T10:26:26;4.97;;;2.47;;
5831;SDS011;50943;51.448;7.646;2022-12-20T10:28:53;4.57;;;1.80;;
5831;SDS011;50943;51.448;7.646;2022-12-20T10:31:19;6.33;;;2.50;;
5831;SDS011;50943;51.448;7.646;2022-12-20T10:33:46;8.83;;;2.27;;
5831;SDS011;50943;51.448;7.646;2022-12-20T10:36:20;4.33;;;2.10;;
5831;SDS011;50943;51.448;7.646;2022-12-20T10:38:47;7.00;;;2.40;;
5831;SDS011;50943;51.448;7.646;2022-12-20T10:41:17;3.83;;;2.50;;
5831;SDS011;50943;51.448;7.646;2022-12-20T10:43:45;3.93;;;2.37;;
5831;SDS011;50943;51.448;7.646;2022-12-20T10:46:13;10.23;;;2.10;;
5831;SDS011;50943;51.448;7.646;2022-12-20T10:48:41;3.63;;;1.97;;
5831;SDS011;50943;51.448;7.646;2022-12-20T10:51:12;3.73;;;1.90;;
5831;SDS011;50943;51.448;7.646;2022-12-20T10:53:48;7.00;;;3.00;;
5831;SDS011;50943;51.448;7.646;2022-12-20T10:56:18;3.20;;;1.70;;
5831;SDS011;50943;51.448;7.646;2022-12-20T10:58:53;3.43;;;1.47;;
5831;SDS011;50943;51.448;7.646;2022-12-20T11:01:20;4.53;;;1.87;;
5831;SDS011;50943;51.448;7.646;2022-12-20T11:03:48;2.50;;;1.90;;
5831;SDS011;50943;51.448;7.646;2022-12-20T11:06:16;3.90;;;1.67;;
5831;SDS011;50943;51.448;7.646;2022-12-20T11:08:42;6.13;;;1.87;;
5831;SDS011;50943;51.448;7.646;2022-12-20T11:11:10;4.90;;;2.30;;
5831;SDS011;50943;51.448;7.646;2022-12-20T11:13:39;5.10;;;1.80;;
5831;SDS011;50943;51.448;7.646;2022-12-20T11:16:19;3.57;;;2.20;;
5831;SDS011;50943;51.448;7.646;2022-12-20T11:18:49;3.77;;;2.00;;
5831;SDS011;50943;51.448;7.646;2022-12-20T11:21:20;2.33;;;1.60;;
5831;SDS011;50943;51.448;7.646;2022-12-20T11:23:52;6.50;;;2.10;;
5831;SDS011;50943;51.448;7.646;2022-12-20T11:26:25;3.67;;;1.63;;
5831;SDS011;50943;51.448;7.646;2022-12-20T11:28:58;3.77;;;1.50;;
5831;SDS011;50943;51.448;7.646;2022-12-20T11:31:27;3.13;;;2.10;;
5831;SDS011;50943;51.448;7.646;2022-12-20T11:34:02;4.97;;;1.73;;
5831;SDS011;50943;51.448;7.646;2022-12-20T11:36:31;4.83;;;1.67;;
5831;SDS011;50943;51.448;7.646;2022-12-20T11:39:04;3.40;;;1.40;;
5831;SDS011;50943;51.448;7.646;2022-12-20T11:41:36;4.17;;;1.73;;
5831;SDS011;50943;51.448;7.646;2022-12-20T11:44:08;2.97;;;1.77;;
5831;SDS011;50943;51.448;7.646;2022-12-20T11:46:40;3.43;;;1.90;;
5831;SDS011;50943;51.448;7.646;2022-12-20T11:49:15;3.40;;;2.03;;
5831;SDS011;50943;51.448;7.646;2022-12-20T11:51:45;5.40;;;1.80;;
5831;SDS011;50943;51.448;7.646;2022-12-20T11:54:14;3.03;;;1.90;;
5831;SDS011;50943;51.448;7.646;2022-12-20T11:56:43;3.20;;;1.63;;
5831;SDS011;50943;51.448;7.646;2022-12-20T11:59:11;3.00;;;1.90;;
5831;SDS011;50943;51.448;7.646;2022-12-20T12:01:41;9.10;;;2.10;;
5831;SDS011;50943;51.448;7.646;2022-12-20T12:04:10;4.53;;;1.70;;
5831;SDS011;50943;51.448;7.646;2022-12-20T12:06:39;4.10;;;1.90;;
5831;SDS011;50943;51.448;7.646;2022-12-20T12:09:17;6.00;;;2.00;;
5831;SDS011;50943;51.448;7.646;2022-12-20T12:11:46;3.90;;;1.73;;
5831;SDS011;50943;51.448;7.646;2022-12-20T12:14:27;7.70;;;1.90;;
5831;SDS011;50943;51.448;7.646;2022-12-20T12:16:54;5.23;;;2.07;;
5831;SDS011;50943;51.448;7.646;2022-12-20T12:19:21;3.23;;;1.90;;
5831;SDS011;50943;51.448;7.646;2022-12-20T12:21:50;3.60;;;1.70;;
5831;SDS011;50943;51.448;7.646;2022-12-20T12:24:21;4.10;;;2.13;;
5831;SDS011;50943;51.448;7.646;2022-12-20T12:26:50;2.37;;;1.70;;
5831;SDS011;50943;51.448;7.646;2022-12-20T12:29:18;2.50;;;1.53;;
5831;SDS011;50943;51.448;7.646;2022-12-20T12:31:47;3.70;;;1.60;;
5831;SDS011;50943;51.448;7.646;2022-12-20T12:34:16;5.87;;;2.27;;
5831;SDS011;50943;51.448;7.646;2022-12-20T12:39:47;2.70;;;1.67;;
5831;SDS011;50943;51.448;7.646;2022-12-20T12:42:26;3.93;;;2.10;;
5831;SDS011;50943;51.448;7.646;2022-12-20T12:44:58;3.80;;;1.93;;
5831;SDS011;50943;51.448;7.646;2022-12-20T12:47:28;4.20;;;2.20;;
5831;SDS011;50943;51.448;7.646;2022-12-20T12:49:59;4.30;;;2.17;;
5831;SDS011;50943;51.448;7.646;2022-12-20T12:52:27;4.60;;;2.30;;
5831;SDS011;50943;51.448;7.646;2022-12-20T12:54:55;5.80;;;2.30;;
5831;SDS011;50943;51.448;7.646;2022-12-20T12:57:21;5.40;;;2.40;;
5831;SDS011;50943;51.448;7.646;2022-12-20T12:59:48;4.07;;;1.93;;
5831;SDS011;50943;51.448;7.646;2022-12-20T13:05:28;4.70;;;2.13;;
5831;SDS011;50943;51.448;7.646;2022-12-20T13:07:48;5.03;;;2.40;;
5831;SDS011;50943;51.448;7.646;2022-12-20T13:13:12;3.70;;;1.60;;
5831;SDS011;50943;51.448;7.646;2022-12-20T13:15:45;3.00;;;1.90;;
5831;SDS011;50943;51.448;7.646;2022-12-20T13:18:22;2.80;;;1.37;;
5831;SDS011;50943;51.448;7.646;2022-12-20T13:23:31;6.80;;;2.07;;
5831;SDS011;50943;51.448;7.646;2022-12-20T13:25:58;4.00;;;1.77;;
5831;SDS011;50943;51.448;7.646;2022-12-20T13:28:43;4.53;;;2.03;;
5831;SDS011;50943;51.448;7.646;2022-12-20T13:31:28;3.27;;;1.83;;
5831;SDS011;50943;51.448;7.646;2022-12-20T13:33:58;3.67;;;2.33;;
5831;SDS011;50943;51.448;7.646;2022-12-20T13:36:29;5.90;;;2.23;;
5831;SDS011;50943;51.448;7.646;2022-12-20T13:38:58;3.87;;;1.77;;
5831;SDS011;50943;51.448;7.646;2022-12-20T13:41:35;6.60;;;2.17;;
5831;SDS011;50943;51.448;7.646;2022-12-20T13:44:08;2.63;;;1.70;;
5831;SDS011;50943;51.448;7.646;2022-12-20T13:46:39;6.13;;;2.33;;
5831;SDS011;50943;51.448;7.646;2022-12-20T13:49:07;4.47;;;1.70;;
5831;SDS011;50943;51.448;7.646;2022-12-20T13:51:35;3.87;;;1.83;;
5831;SDS011;50943;51.448;7.646;2022-12-20T13:54:03;6.10;;;2.07;;
5831;SDS011;50943;51.448;7.646;2022-12-20T13:56:33;4.20;;;1.90;;
5831;SDS011;50943;51.448;7.646;2022-12-20T13:59:03;3.40;;;1.60;;
5831;SDS011;50943;51.448;7.646;2022-12-20T14:01:30;3.93;;;1.90;;
5831;SDS011;50943;51.448;7.646;2022-12-20T14:03:57;4.87;;;2.50;;
5831;SDS011;50943;51.448;7.646;2022-12-20T14:06:25;5.80;;;2.80;;
5831;SDS011;50943;51.448;7.646;2022-12-20T14:08:52;4.50;;;2.27;;
5831;SDS011;50943;51.448;7.646;2022-12-20T14:11:21;5.23;;;2.70;;
5831;SDS011;50943;51.448;7.646;2022-12-20T14:13:50;3.30;;;2.43;;
5831;SDS011;50943;51.448;7.646;2022-12-20T14:16:17;8.10;;;3.33;;
5831;SDS011;50943;51.448;7.646;2022-12-20T14:18:46;3.90;;;2.20;;
5831;SDS011;50943;51.448;7.646;2022-12-20T14:21:13;4.60;;;2.47;;
5831;SDS011;50943;51.448;7.646;2022-12-20T14:23:40;5.23;;;2.10;;
5831;SDS011;50943;51.448;7.646;2022-12-20T14:26:09;7.37;;;2.60;;
5831;SDS011;50943;51.448;7.646;2022-12-20T14:28:38;6.40;;;2.23;;
5831;SDS011;50943;51.448;7.646;2022-12-20T14:31:05;10.27;;;6.33;;
5831;SDS011;50943;51.448;7.646;2022-12-20T14:33:33;7.77;;;2.50;;
5831;SDS011;50943;51.448;7.646;2022-12-20T14:36:07;4.97;;;2.00;;
5831;SDS011;50943;51.448;7.646;2022-12-20T14:38:34;7.20;;;3.77;;
5831;SDS011;50943;51.448;7.646;2022-12-20T14:41:00;5.83;;;2.50;;
5831;SDS011;50943;51.448;7.646;2022-12-20T14:43:28;3.80;;;2.10;;
5831;SDS011;50943;51.448;7.646;2022-12-20T14:48:49;4.27;;;2.33;;
5831;SDS011;50943;51.448;7.646;2022-12-20T14:51:30;4.63;;;1.90;;
5831;SDS011;50943;51.448;7.646;2022-12-20T14:53:56;6.50;;;2.07;;
5831;SDS011;50943;51.448;7.646;2022-12-20T14:56:24;10.80;;;2.50;;
5831;SDS011;50943;51.448;7.646;2022-12-20T14:59:00;6.83;;;3.00;;
5831;SDS011;50943;51.448;7.646;2022-12-20T15:01:26;10.30;;;2.80;;
5831;SDS011;50943;51.448;7.646;2022-12-20T15:03:57;4.60;;;2.70;;
5831;SDS011;50943;51.448;7.646;2022-12-20T15:06:31;6.70;;;2.73;;
5831;SDS011;50943;51.448;7.646;2022-12-20T15:08:57;9.87;;;2.97;;
5831;SDS011;50943;51.448;7.646;2022-12-20T15:11:24;14.03;;;3.40;;
5831;SDS011;50943;51.448;7.646;2022-12-20T15:13:51;9.10;;;3.00;;
5831;SDS011;50943;51.448;7.646;2022-12-20T15:16:20;7.70;;;3.07;;
5831;SDS011;50943;51.448;7.646;2022-12-20T15:18:47;7.80;;;3.37;;
5831;SDS011;50943;51.448;7.646;2022-12-20T15:21:15;7.53;;;3.00;;
5831;SDS011;50943;51.448;7.646;2022-12-20T15:23:45;10.97;;;5.30;;